Aérodrome :
LOGIN :

S'inscrire | Disclaimer

   EN    FR    IT 

 










Légende :    VFR   VFR Marginal   IFR   IFR Intensif   IFR Très Intensif
Visi : 
Plafond : 
>= 8 km
>= 3000ft
5 à 8 km
1000 à 3000 ft
1500m à 5 km
500 à 1000 ft
800 à 1500m
200 à 500 ft
< 800m
< 200 ft
Symboles :   Orages  Brouillard  Fortes neiges  Fortes précipitations  Vent > 20 kt
SIGMETs :   Divers  Orages  Givrage  Turbulence  Onde Orograph.  Cendres Volcan.






- Altitude de l'aérodrome : 39 ft
- Code IATA : SUF


LICA - Lamezia Terme

DERNIER METAR :
  • 010620Z AUTO 23003KT 190V270 9999 NCD 29/23 Q1012

METARs EXPIRÉS :
  • 010550Z AUTO 26003KT 220V300 9999 NCD 27/21 Q1012
  • 010520Z AUTO VRB01KT 9999 NCD 24/20 Q1012
  • 010450Z AUTO 25003KT 220V280 9999 NCD 21/19 Q1012
  • 010420Z AUTO 09003KT 9999 NCD 20/18 Q1012
  • 010350Z AUTO 08002KT 9999 NCD 20/18 Q1011

TAF TAF LICA
Valide du 01 à 06h jusqu'au 02 à 06h UTC


010500Z 0106/0206 VRB05KT CAVOK
BECMG 0108/0110 27012KT
BECMG 0116/0118 VRB05KT



MET'MAP, la Météo Aéronautique d'un coup d'oeil ! - Copyright ORBIFLY Décembre 2007 - Disclaimer

ORBIFLY MET'MAP TEAM :

Programmation & Développement : Alexandra Zaïnal
Sur une idée originale de : Baudouin d'Aumeries
Assistance à la programmation : Marc-Olivier Méhu
Soutien technique & logistique : Manuel Goepfert

Contact : metmap@orbifly.com




SOURCES & CREDITS :

   NOAA